Time;durP1;ratioP1;P1;durP2;ratioP2;P2;SDS_P1;SDS_P2;PMS_P1;PMS_P2;Temp;Humidity;BMP_temperature;BMP_pressure;BME280_temperature;BME280_humidity;BME280_pressure;Samples;Min_cycle;Max_cycle;Signal;HPM_P1;HPM_P2
2023/04/04 00:02:40;;;;;;;9.30;4.30;;;;;;;-0.81;63.62;101374.63;102563;278;120395;-54
2023/04/04 00:05:24;;;;;;;5.50;2.80;;;;;;;-0.85;63.86;101375.55;102620;278;105496;-53
2023/04/04 00:08:04;;;;;;;5.40;3.20;;;;;;;-0.88;63.86;101373.09;102559;278;114049;-60
2023/04/04 00:10:56;;;;;;;5.20;3.00;;;;;;;-0.93;64.04;101371.81;102572;278;94108;-59
2023/04/04 00:13:33;;;;;;;7.00;3.10;;;;;;;-0.99;64.19;101375.92;102590;278;97651;-54
2023/04/04 00:16:10;;;;;;;7.80;3.10;;;;;;;-1.05;64.28;101373.99;102571;278;119573;-58
2023/04/04 00:18:49;;;;;;;7.70;3.50;;;;;;;-1.16;64.46;101367.38;102603;278;103801;-58
2023/04/04 00:21:29;;;;;;;5.90;3.20;;;;;;;-1.24;64.48;101366.79;102577;278;114371;-55
2023/04/04 00:24:07;;;;;;;7.70;2.90;;;;;;;-1.34;64.62;101367.73;102563;278;93755;-54
2023/04/04 00:26:48;;;;;;;8.80;3.20;;;;;;;-1.41;64.70;101363.94;102610;278;97819;-59
2023/04/04 00:29:22;;;;;;;7.10;3.90;;;;;;;-1.47;64.84;101359.69;102582;278;120099;-59
2023/04/04 00:32:02;;;;;;;6.30;3.00;;;;;;;-1.53;64.95;101358.31;102566;278;105787;-53
2023/04/04 00:34:42;;;;;;;6.60;2.80;;;;;;;-1.60;65.25;101361.56;102525;278;115006;-54
2023/04/04 00:37:18;;;;;;;6.80;3.30;;;;;;;-1.67;65.35;101359.13;102537;278;96310;-58
2023/04/04 00:39:54;;;;;;;7.20;2.90;;;;;;;-1.71;65.52;101359.36;102584;278;97888;-58
2023/04/04 00:42:30;;;;;;;9.60;3.60;;;;;;;-1.73;65.73;101353.14;102577;278;120201;-59
2023/04/04 00:45:09;;;;;;;7.70;3.50;;;;;;;-1.75;65.84;101354.42;102581;278;105693;-59
2023/04/04 00:47:47;;;;;;;11.10;4.10;;;;;;;-1.77;66.05;101355.09;102592;278;113717;-59
2023/04/04 00:50:31;;;;;;;8.20;3.90;;;;;;;-1.77;66.26;101350.36;102526;278;94242;-59
2023/04/04 00:53:15;;;;;;;8.50;3.80;;;;;;;-1.80;66.37;101354.02;102588;278;98546;-55
2023/04/04 00:55:55;;;;;;;8.00;3.70;;;;;;;-1.86;66.43;101348.86;102540;278;120589;-54
2023/04/04 00:58:36;;;;;;;6.50;3.30;;;;;;;-1.91;66.47;101348.11;102573;278;104135;-59
2023/04/04 01:01:15;;;;;;;9.60;4.00;;;;;;;-1.99;66.56;101344.00;102536;278;113626;-58
2023/04/04 01:03:54;;;;;;;10.30;4.30;;;;;;;-2.06;66.62;101340.36;102496;278;96676;-58
2023/04/04 01:06:32;;;;;;;13.30;5.10;;;;;;;-2.13;66.82;101337.23;102541;278;98249;-55
2023/04/04 01:09:14;;;;;;;9.10;4.80;;;;;;;-2.16;66.97;101333.69;102489;275;119414;-55
2023/04/04 01:11:55;;;;;;;9.70;4.20;;;;;;;-2.16;67.38;101326.64;102543;278;104944;-54
2023/04/04 01:14:34;;;;;;;8.30;3.60;;;;;;;-2.14;67.52;101320.88;102541;278;114057;-54
2023/04/04 01:17:11;;;;;;;6.80;3.20;;;;;;;-2.13;67.65;101318.17;102575;278;93992;-54
2023/04/04 01:20:02;;;;;;;9.70;3.80;;;;;;;-2.14;67.76;101315.92;102552;278;96710;-53
2023/04/04 01:22:47;;;;;;;6.00;2.70;;;;;;;-2.16;67.99;101310.55;102550;278;119215;-54
2023/04/04 01:25:30;;;;;;;6.10;3.40;;;;;;;-2.18;68.14;101309.25;102574;278;105834;-54
2023/04/04 01:28:10;;;;;;;5.60;2.50;;;;;;;-2.19;68.20;101308.65;102533;278;115168;-53
2023/04/04 01:30:50;;;;;;;8.90;3.20;;;;;;;-2.22;68.12;101301.92;102550;278;92933;-54
2023/04/04 01:33:32;;;;;;;11.80;3.60;;;;;;;-2.28;68.28;101302.96;102540;278;97147;-59
2023/04/04 01:36:19;;;;;;;9.70;3.20;;;;;;;-2.31;68.53;101304.17;102544;278;118812;-57
2023/04/04 01:39:05;;;;;;;9.30;3.40;;;;;;;-2.33;68.62;101303.80;102516;278;105960;-57
2023/04/04 01:41:49;;;;;;;8.50;3.00;;;;;;;-2.36;68.72;101299.91;102582;278;114121;-54
2023/04/04 01:44:26;;;;;;;8.50;2.90;;;;;;;-2.39;68.96;101303.92;102446;278;95085;-54
2023/04/04 01:47:05;;;;;;;6.60;3.20;;;;;;;-2.37;69.05;101301.00;102638;278;98780;-59
2023/04/04 01:49:47;;;;;;;9.00;3.20;;;;;;;-2.33;69.15;101299.73;102584;278;120141;-59
2023/04/04 01:52:25;;;;;;;7.70;3.20;;;;;;;-2.36;69.38;101299.70;102610;278;103914;-58
2023/04/04 01:55:07;;;;;;;6.00;3.30;;;;;;;-2.37;69.37;101298.73;102591;278;114058;-58
2023/04/04 01:57:50;;;;;;;7.20;3.10;;;;;;;-2.41;69.40;101301.02;102639;278;93465;-59
2023/04/04 02:00:35;;;;;;;8.40;3.30;;;;;;;-2.44;69.56;101305.11;102591;278;98023;-59
2023/04/04 02:03:18;;;;;;;8.20;3.20;;;;;;;-2.48;69.57;101306.92;102558;278;120486;-54
2023/04/04 02:05:53;;;;;;;6.20;3.20;;;;;;;-2.57;69.51;101303.52;102577;278;105340;-54
2023/04/04 02:08:35;;;;;;;8.20;3.20;;;;;;;-2.62;69.65;101302.05;102569;278;115328;-54
2023/04/04 02:11:13;;;;;;;7.60;3.40;;;;;;;-2.65;69.86;101301.35;102581;278;95967;-54
2023/04/04 02:13:54;;;;;;;7.60;3.00;;;;;;;-2.64;69.98;101298.29;102564;278;97503;-53
2023/04/04 02:16:35;;;;;;;8.80;3.00;;;;;;;-2.60;70.28;101298.23;102609;278;119648;-53
2023/04/04 02:19:13;;;;;;;8.60;4.90;;;;;;;-2.53;70.60;101295.73;102615;278;106138;-53
2023/04/04 02:21:55;;;;;;;7.20;3.10;;;;;;;-2.51;70.52;101292.41;102632;278;114201;-53
2023/04/04 02:24:37;;;;;;;6.40;3.20;;;;;;;-2.51;70.43;101299.10;101983;278;814407;-53
2023/04/04 02:27:24;;;;;;;7.00;3.30;;;;;;;-2.57;70.44;101299.26;102589;278;97513;-58
2023/04/04 02:30:05;;;;;;;9.90;4.40;;;;;;;-2.62;70.36;101296.23;102585;278;119662;-57
2023/04/04 02:32:42;;;;;;;12.30;4.70;;;;;;;-2.68;70.44;101296.02;102582;278;104225;-60
2023/04/04 02:35:28;;;;;;;9.20;4.10;;;;;;;-2.73;70.50;101299.47;102579;278;114281;-59
2023/04/04 02:38:09;;;;;;;7.70;3.60;;;;;;;-2.75;70.67;101301.02;102576;278;93186;-59
2023/04/04 02:40:52;;;;;;;10.70;4.10;;;;;;;-2.76;70.79;101305.27;102567;278;96967;-59
2023/04/04 02:43:32;;;;;;;7.70;3.50;;;;;;;-2.77;70.97;101302.48;102577;277;118924;-57
2023/04/04 02:46:12;;;;;;;5.90;3.20;;;;;;;-2.76;70.95;101304.23;102632;278;103920;-53
2023/04/04 02:48:56;;;;;;;6.30;3.30;;;;;;;-2.77;71.24;101296.55;102621;278;115248;-53
2023/04/04 02:51:39;;;;;;;9.50;3.60;;;;;;;-2.79;71.18;101294.19;102597;278;93831;-54
2023/04/04 02:54:15;;;;;;;9.40;4.70;;;;;;;-2.82;71.38;101296.27;102643;278;97995;-54
2023/04/04 02:56:55;;;;;;;15.60;6.30;;;;;;;-2.87;71.42;101298.85;102602;278;121006;-57
2023/04/04 02:59:34;;;;;;;21.50;8.50;;;;;;;-2.92;71.44;101301.91;102629;266;106283;-56
2023/04/04 03:02:13;;;;;;;23.80;8.60;;;;;;;-2.95;71.49;101301.59;102548;278;113639;-58
2023/04/04 03:04:54;;;;;;;16.50;6.60;;;;;;;-3.02;71.55;101304.55;102578;278;95576;-56
2023/04/04 03:07:32;;;;;;;11.40;4.90;;;;;;;-3.05;71.66;101307.70;102605;278;96853;-53
2023/04/04 03:10:10;;;;;;;16.60;6.80;;;;;;;-3.05;71.75;101307.86;102593;277;120014;-53
2023/04/04 03:12:45;;;;;;;17.00;7.20;;;;;;;-3.04;71.67;101308.70;102736;277;104709;-58
2023/04/04 03:15:22;;;;;;;21.50;8.00;;;;;;;-3.04;71.79;101313.28;102697;277;114770;-60
2023/04/04 03:17:59;;;;;;;16.60;7.10;;;;;;;-3.03;71.79;101310.59;102737;277;92636;-59
2023/04/04 03:20:37;;;;;;;17.60;6.70;;;;;;;-3.05;71.82;101312.45;102729;277;97208;-59
2023/04/04 03:23:20;;;;;;;15.50;7.00;;;;;;;-3.11;71.88;101317.36;102705;277;120281;-53
2023/04/04 03:25:57;;;;;;;11.10;5.10;;;;;;;-3.17;71.78;101310.46;102727;277;105973;-57
2023/04/04 03:28:36;;;;;;;13.00;4.60;;;;;;;-3.23;71.88;101312.02;102695;277;114155;-59
2023/04/04 03:31:14;;;;;;;8.30;3.70;;;;;;;-3.30;72.00;101308.67;102718;277;95308;-55
2023/04/04 03:33:59;;;;;;;8.10;3.50;;;;;;;-3.33;72.03;101308.13;102690;277;97940;-54
2023/04/04 03:36:45;;;;;;;10.30;3.70;;;;;;;-3.34;72.16;101302.90;102667;277;119637;-58
2023/04/04 03:39:27;;;;;;;7.90;2.80;;;;;;;-3.34;72.21;101299.75;102725;277;104245;-58
2023/04/04 03:42:01;;;;;;;9.20;3.40;;;;;;;-3.34;72.35;101301.50;102684;266;114474;-59
2023/04/04 03:44:41;;;;;;;10.40;3.80;;;;;;;-3.36;72.34;101301.42;102727;277;91776;-59
2023/04/04 03:47:24;;;;;;;9.10;3.40;;;;;;;-3.42;72.46;101298.05;102744;277;98028;-53
2023/04/04 03:50:01;;;;;;;9.00;3.90;;;;;;;-3.48;72.49;101295.02;102733;277;118943;-53
2023/04/04 03:52:41;;;;;;;6.40;3.00;;;;;;;-3.54;72.60;101297.61;102700;277;104935;-54
2023/04/04 03:55:15;;;;;;;9.20;3.50;;;;;;;-3.62;72.69;101294.30;102674;277;115365;-52
2023/04/04 03:57:54;;;;;;;;;;;;;;;-3.63;72.75;101298.77;102704;277;93279;-57
2023/04/04 04:00:36;;;;;;;8.20;3.30;;;;;;;-3.61;72.96;101298.70;102710;277;97700;-57
2023/04/04 04:03:21;;;;;;;6.70;3.60;;;;;;;-3.57;73.09;101300.05;102723;277;119793;-58
2023/04/04 04:05:59;;;;;;;6.90;3.20;;;;;;;-3.54;73.24;101301.13;102706;277;105669;-59
2023/04/04 04:08:33;;;;;;;6.90;2.90;;;;;;;-3.48;73.26;101302.58;102702;277;112906;-53
2023/04/04 04:11:18;;;;;;;5.70;3.40;;;;;;;-3.48;73.23;101299.42;102716;277;93462;-54
2023/04/04 04:13:59;;;;;;;7.20;3.30;;;;;;;-3.46;73.30;101299.67;102714;277;98001;-54
2023/04/04 04:16:40;;;;;;;7.70;3.00;;;;;;;-3.46;73.34;101300.91;102716;277;119855;-52
2023/04/04 04:19:30;;;;;;;12.70;3.60;;;;;;;-3.49;73.43;101299.81;102712;277;105464;-53
2023/04/04 04:22:15;;;;;;;10.90;3.10;;;;;;;-3.47;73.31;101299.93;102694;277;113786;-55
2023/04/04 04:24:56;;;;;;;7.20;3.10;;;;;;;-3.49;73.45;101301.75;102732;277;95854;-55
2023/04/04 04:27:41;;;;;;;8.10;4.20;;;;;;;-3.45;73.48;101295.41;102734;277;97939;-54
2023/04/04 04:30:23;;;;;;;13.00;4.30;;;;;;;-3.38;73.46;101299.25;102711;277;119713;-55
2023/04/04 04:33:02;;;;;;;11.90;3.90;;;;;;;-3.31;73.65;101299.60;102764;277;105691;-59
2023/04/04 04:35:39;;;;;;;7.20;3.40;;;;;;;-3.26;73.79;101303.38;102711;277;113039;-60
2023/04/04 04:38:24;;;;;;;10.10;3.70;;;;;;;-3.19;73.83;101303.85;102772;277;93739;-59
2023/04/04 04:40:58;;;;;;;5.40;2.50;;;;;;;-3.08;73.86;101303.11;102777;277;97947;-58
2023/04/04 04:43:36;;;;;;;9.80;3.80;;;;;;;-2.95;73.88;101298.23;102737;277;117639;-60
2023/04/04 04:46:13;;;;;;;7.80;3.40;;;;;;;-2.85;74.09;101296.44;102741;274;105770;-61
2023/04/04 04:48:51;;;;;;;8.50;3.90;;;;;;;-2.55;74.17;101299.17;102701;277;114419;-60
2023/04/04 04:51:32;;;;;;;13.80;3.70;;;;;;;-1.37;74.40;101288.94;102734;277;94564;-60
2023/04/04 04:54:06;;;;;;;9.10;4.30;;;;;;;-0.38;73.59;101282.91;102694;277;96958;-58
2023/04/04 04:56:44;;;;;;;8.20;3.70;;;;;;;0.18;73.01;101281.54;102795;277;117572;-59
2023/04/04 04:59:21;;;;;;;11.10;3.50;;;;;;;0.68;72.65;101279.73;102748;277;103975;-59
2023/04/04 05:02:00;;;;;;;8.20;3.30;;;;;;;1.38;72.29;101278.67;102774;277;111993;-60
2023/04/04 05:04:40;;;;;;;6.30;3.40;;;;;;;1.90;71.83;101272.54;102709;277;91714;-55
2023/04/04 05:07:16;;;;;;;9.50;3.70;;;;;;;2.14;71.36;101271.84;102769;277;96112;-54
2023/04/04 05:09:50;;;;;;;9.00;4.30;;;;;;;2.34;71.02;101268.36;102737;277;118161;-55
2023/04/04 05:12:29;;;;;;;8.50;3.70;;;;;;;2.85;70.14;101264.04;102746;277;105351;-58
2023/04/04 05:15:09;;;;;;;6.40;3.30;;;;;;;3.32;69.55;101264.19;102750;266;113198;-59
2023/04/04 05:17:52;;;;;;;5.60;2.60;;;;;;;3.49;68.88;101259.80;102767;277;93552;-55
2023/04/04 05:20:32;;;;;;;5.50;2.70;;;;;;;3.83;68.67;101258.61;102731;277;96355;-55
2023/04/04 05:23:20;;;;;;;5.60;2.90;;;;;;;5.23;68.61;101258.95;102723;277;119864;-59
2023/04/04 05:26:02;;;;;;;7.80;2.90;;;;;;;6.78;67.39;101253.71;102704;277;105683;-58
2023/04/04 05:28:39;;;;;;;6.60;3.70;;;;;;;7.81;65.75;101256.55;102718;277;114557;-59
2023/04/04 05:31:16;;;;;;;5.40;3.00;;;;;;;8.92;64.49;101248.28;102760;277;93583;-59
2023/04/04 05:33:59;;;;;;;4.50;2.50;;;;;;;9.86;62.48;101252.58;102705;277;96086;-55
2023/04/04 05:36:37;;;;;;;6.40;2.80;;;;;;;10.43;60.65;101249.55;102763;277;118006;-58
2023/04/04 05:39:17;;;;;;;4.20;2.30;;;;;;;11.10;58.69;101248.52;102762;277;105818;-58
2023/04/04 05:42:00;;;;;;;6.00;2.40;;;;;;;11.49;57.31;101245.70;102700;277;114679;-55
2023/04/04 05:44:41;;;;;;;6.10;2.50;;;;;;;11.68;55.50;101249.83;102705;277;95018;-56
2023/04/04 05:47:24;;;;;;;5.40;2.40;;;;;;;11.47;53.51;101251.02;102727;277;97752;-54
2023/04/04 05:49:59;;;;;;;6.40;2.30;;;;;;;10.91;52.61;101253.82;102696;277;118976;-55
2023/04/04 05:52:41;;;;;;;5.70;2.40;;;;;;;10.55;51.86;101258.75;102725;277;106106;-55
2023/04/04 05:55:19;;;;;;;5.50;2.50;;;;;;;8.96;52.03;101264.42;102698;277;115284;-55
2023/04/04 05:57:57;;;;;;;6.50;2.90;;;;;;;8.00;52.41;101265.77;102720;277;95018;-54
2023/04/04 06:00:33;;;;;;;5.70;2.80;;;;;;;8.39;52.79;101264.53;102713;277;98130;-53
2023/04/04 06:03:11;;;;;;;4.70;2.70;;;;;;;9.59;52.93;101260.12;102743;277;119770;-54
2023/04/04 06:05:52;;;;;;;6.10;2.80;;;;;;;11.18;50.79;101255.72;102723;277;105176;-54
2023/04/04 06:08:36;;;;;;;5.20;2.30;;;;;;;12.38;50.73;101251.38;102692;277;113232;-54
2023/04/04 06:11:20;;;;;;;5.40;2.70;;;;;;;13.53;50.04;101250.49;102491;278;95046;-59
2023/04/04 06:13:59;;;;;;;6.70;3.00;;;;;;;13.78;49.03;101252.05;102714;277;96037;-58
2023/04/04 06:16:34;;;;;;;5.40;2.90;;;;;;;14.36;48.25;101251.65;102711;277;120588;-59
2023/04/04 06:19:08;;;;;;;6.20;3.50;;;;;;;14.88;47.47;101245.61;102711;277;105671;-57
2023/04/04 06:21:43;;;;;;;;;;;;;;;15.28;46.53;101244.74;102731;277;114374;-59
2023/04/04 06:24:26;;;;;;;7.00;2.90;;;;;;;15.39;45.86;101244.63;102670;277;94581;-59
2023/04/04 06:27:09;;;;;;;4.70;2.60;;;;;;;15.75;45.21;101238.30;102716;277;98363;-55
2023/04/04 06:29:48;;;;;;;5.60;2.90;;;;;;;15.71;44.31;101237.81;102727;277;120332;-54
2023/04/04 06:32:32;;;;;;;5.50;2.70;;;;;;;15.81;43.53;101232.09;102724;277;105682;-59
2023/04/04 06:35:11;;;;;;;5.30;3.00;;;;;;;15.54;43.24;101233.44;102718;277;114776;-59
2023/04/04 06:37:45;;;;;;;5.90;3.00;;;;;;;15.45;42.89;101228.72;102746;277;94420;-54
2023/04/04 06:40:25;;;;;;;5.60;2.70;;;;;;;15.84;41.89;101227.19;102724;277;97344;-55
2023/04/04 06:43:03;;;;;;;5.90;3.20;;;;;;;15.50;41.56;101226.34;102730;277;119040;-59
2023/04/04 06:45:47;;;;;;;6.70;2.70;;;;;;;15.06;41.27;101223.64;102754;277;105027;-62
2023/04/04 06:48:26;;;;;;;6.50;3.20;;;;;;;14.64;41.13;101230.02;102729;277;114563;-58
2023/04/04 06:51:05;;;;;;;5.10;2.90;;;;;;;14.05;41.32;101229.45;102684;277;93895;-55
2023/04/04 06:53:44;;;;;;;6.90;3.90;;;;;;;13.89;41.21;101228.55;102733;277;97350;-54
2023/04/04 06:56:21;;;;;;;8.50;3.20;;;;;;;14.11;41.06;101222.52;102754;277;120633;-58
2023/04/04 06:58:58;;;;;;;5.10;3.10;;;;;;;14.79;40.67;101220.32;102707;277;105349;-58
2023/04/04 07:01:36;;;;;;;5.90;3.50;;;;;;;15.30;40.25;101211.04;102689;277;113978;-59
2023/04/04 07:04:15;;;;;;;6.30;3.30;;;;;;;15.95;39.51;101212.42;102705;277;93703;-59
2023/04/04 07:06:56;;;;;;;6.00;3.00;;;;;;;17.09;39.18;101210.39;102753;277;98380;-54
2023/04/04 07:09:35;;;;;;;5.20;3.40;;;;;;;17.77;38.30;101212.52;102698;277;119251;-53
2023/04/04 07:12:25;;;;;;;6.00;3.70;;;;;;;17.72;37.62;101210.64;102729;277;105714;-54
2023/04/04 07:15:03;;;;;;;6.80;3.40;;;;;;;18.09;37.85;101211.15;102673;277;114508;-54
2023/04/04 07:17:40;;;;;;;5.70;4.20;;;;;;;18.47;37.11;101210.24;102690;277;94739;-54
2023/04/04 07:20:16;;;;;;;4.40;3.20;;;;;;;18.42;36.71;101210.20;102686;277;97044;-54
2023/04/04 07:22:56;;;;;;;5.40;3.40;;;;;;;18.26;36.11;101213.61;102745;277;120104;-55
2023/04/04 07:25:37;;;;;;;5.30;3.40;;;;;;;17.96;35.75;101206.34;102715;277;105637;-55
2023/04/04 07:28:18;;;;;;;4.70;2.80;;;;;;;18.14;35.76;101211.37;102720;266;114415;-54
2023/04/04 07:31:02;;;;;;;4.40;2.50;;;;;;;17.73;35.04;101207.26;102721;277;93492;-54
2023/04/04 07:33:39;;;;;;;3.80;2.50;;;;;;;16.16;35.19;101211.84;102704;277;96801;-60
2023/04/04 07:36:22;;;;;;;5.60;2.60;;;;;;;14.64;35.71;101215.50;102722;277;120693;-55
2023/04/04 07:39:00;;;;;;;;;;;;;;;13.35;36.59;101221.42;102696;277;105333;-55
2023/04/04 07:41:38;;;;;;;5.60;2.60;;;;;;;12.21;37.36;101223.28;102729;277;114589;-53
2023/04/04 07:44:25;;;;;;;5.10;2.80;;;;;;;11.35;37.99;101222.04;102733;277;93792;-54
2023/04/04 07:47:01;;;;;;;;;;;;;;;10.96;38.90;101222.24;102770;277;97623;-59
2023/04/04 07:49:38;;;;;;;;;;;;;;;11.08;39.56;101220.23;102728;277;120403;-58
2023/04/04 07:52:17;;;;;;;4.70;2.70;;;;;;;11.47;39.65;101214.92;102692;277;105839;-54
2023/04/04 07:54:53;;;;;;;4.70;2.80;;;;;;;11.21;39.70;101220.27;102711;277;113486;-54
2023/04/04 07:57:37;;;;;;;7.00;2.80;;;;;;;12.37;40.15;101217.10;102726;277;94840;-55
2023/04/04 08:00:14;;;;;;;6.40;3.10;;;;;;;14.12;39.82;101211.06;102697;277;98543;-60
2023/04/04 08:02:54;;;;;;;4.30;2.80;;;;;;;15.82;39.30;101202.75;102729;277;121439;-59
2023/04/04 08:05:36;;;;;;;4.90;3.10;;;;;;;16.45;38.21;101201.47;102693;277;106257;-59
2023/04/04 08:08:12;;;;;;;5.10;2.90;;;;;;;16.73;37.30;101197.02;102720;277;114548;-60
2023/04/04 08:10:49;;;;;;;5.50;2.70;;;;;;;17.29;36.87;101191.58;102666;277;93212;-60
2023/04/04 08:13:24;;;;;;;4.90;3.00;;;;;;;18.01;36.69;101188.30;102735;277;98566;-59
2023/04/04 08:16:01;;;;;;;4.30;3.20;;;;;;;18.70;36.26;101185.88;102703;277;120991;-57
2023/04/04 08:18:35;;;;;;;4.30;2.40;;;;;;;19.19;35.68;101182.48;102723;277;105611;-60
2023/04/04 08:21:10;;;;;;;3.60;2.70;;;;;;;19.60;35.47;101178.38;102711;277;114350;-61
2023/04/04 08:23:53;;;;;;;6.30;3.40;;;;;;;18.79;34.43;101181.69;102672;269;93496;-61
2023/04/04 08:26:38;;;;;;;5.70;3.10;;;;;;;17.25;34.06;101185.77;102747;277;96827;-56
2023/04/04 08:29:13;;;;;;;4.60;2.90;;;;;;;15.37;34.36;101186.00;102676;277;121022;-55
2023/04/04 08:31:56;;;;;;;3.90;2.60;;;;;;;14.35;35.55;101188.29;102730;277;105386;-60
2023/04/04 08:34:35;;;;;;;5.50;3.20;;;;;;;15.97;36.24;101176.21;102738;277;115099;-61
2023/04/04 08:37:16;;;;;;;5.30;2.60;;;;;;;15.77;35.04;101179.95;102771;277;92758;-59
2023/04/04 08:40:00;;;;;;;5.00;2.80;;;;;;;14.50;35.64;101183.48;102706;277;97992;-59
2023/04/04 08:42:42;;;;;;;6.10;3.30;;;;;;;14.42;35.99;101183.45;102725;277;120888;-54
2023/04/04 08:45:19;;;;;;;5.00;2.90;;;;;;;13.37;35.86;101182.91;102730;277;105875;-54
2023/04/04 08:48:01;;;;;;;4.50;2.30;;;;;;;12.30;35.86;101186.60;102721;277;113765;-57
2023/04/04 08:50:41;;;;;;;5.60;3.20;;;;;;;11.40;36.77;101186.69;102732;277;92608;-59
2023/04/04 08:53:18;;;;;;;4.70;2.90;;;;;;;11.42;37.30;101183.77;102704;277;96923;-59
2023/04/04 08:55:56;;;;;;;7.00;2.80;;;;;;;10.83;37.36;101187.77;102702;277;119253;-59
2023/04/04 08:58:32;;;;;;;4.80;2.40;;;;;;;9.96;37.47;101190.64;102610;277;106100;-55
2023/04/04 09:01:08;;;;;;;5.50;2.60;;;;;;;9.46;37.77;101188.88;102740;277;113581;-60
2023/04/04 09:03:47;;;;;;;3.50;1.90;;;;;;;9.01;38.28;101188.46;102700;277;94185;-60
2023/04/04 09:06:28;;;;;;;3.50;1.80;;;;;;;8.65;38.86;101186.86;102529;277;97014;-54
2023/04/04 09:09:10;;;;;;;3.40;1.80;;;;;;;9.86;39.01;101189.77;102724;277;120300;-54
2023/04/04 09:11:53;;;;;;;4.80;1.60;;;;;;;9.88;38.11;101185.70;102739;277;106143;-59
2023/04/04 09:14:32;;;;;;;3.50;1.80;;;;;;;9.53;37.50;101192.58;102718;277;114952;-59
2023/04/04 09:17:09;;;;;;;3.90;1.70;;;;;;;8.87;37.61;101189.93;102748;277;95006;-55
2023/04/04 09:19:48;;;;;;;3.00;1.60;;;;;;;8.21;38.16;101187.80;102764;277;97305;-55
2023/04/04 09:22:30;;;;;;;4.00;1.70;;;;;;;7.71;38.87;101191.52;102700;277;121028;-55
2023/04/04 09:25:08;;;;;;;4.20;1.80;;;;;;;7.32;39.08;101190.39;102710;277;103797;-54
2023/04/04 09:27:48;;;;;;;2.90;1.70;;;;;;;7.98;39.87;101186.64;102724;277;115442;-54
2023/04/04 09:30:26;;;;;;;2.60;1.50;;;;;;;9.42;39.89;101182.80;102589;277;94782;-54
2023/04/04 09:33:04;;;;;;;2.70;1.60;;;;;;;10.69;39.26;101171.77;102727;277;97915;-55
2023/04/04 09:35:51;;;;;;;5.10;1.70;;;;;;;11.70;38.34;101168.93;102698;277;121320;-55
2023/04/04 09:38:32;;;;;;;2.40;1.20;;;;;;;11.29;37.15;101173.52;102714;277;106027;-59
2023/04/04 09:41:10;;;;;;;5.00;1.40;;;;;;;10.10;36.69;101181.16;102726;277;114785;-60
2023/04/04 09:43:48;;;;;;;2.80;1.30;;;;;;;8.93;36.79;101188.04;102677;277;94449;-59
2023/04/04 09:46:26;;;;;;;4.20;1.50;;;;;;;8.10;37.35;101189.40;102756;277;97877;-55
2023/04/04 09:49:03;;;;;;;4.30;1.60;;;;;;;7.69;37.91;101189.59;102703;277;120153;-55
2023/04/04 09:51:53;;;;;;;3.30;1.40;;;;;;;8.26;38.63;101177.45;102733;277;105804;-60
2023/04/04 09:54:36;;;;;;;3.80;1.30;;;;;;;8.70;38.44;101171.64;102729;277;115009;-59
2023/04/04 09:57:14;;;;;;;2.00;1.30;;;;;;;8.78;38.30;101175.80;102703;277;94013;-55
2023/04/04 10:00:00;;;;;;;3.50;1.50;;;;;;;8.15;37.90;101176.19;102728;277;97302;-54
2023/04/04 10:02:47;;;;;;;4.40;1.40;;;;;;;7.69;38.41;101174.59;102733;269;120887;-60
2023/04/04 10:05:28;;;;;;;3.00;1.50;;;;;;;7.55;38.61;101178.52;102732;277;105557;-55
2023/04/04 10:08:25;;;;;;;4.30;1.70;;;;;;;7.78;38.93;101177.98;102713;277;113577;-60
2023/04/04 10:11:04;;;;;;;3.40;1.60;;;;;;;8.01;39.05;101180.49;102703;277;95283;-56
2023/04/04 10:13:45;;;;;;;3.30;1.70;;;;;;;7.88;38.95;101180.91;102731;277;96773;-55
2023/04/04 10:16:32;;;;;;;2.40;0.90;;;;;;;7.94;38.96;101180.73;102771;277;121027;-59
2023/04/04 10:19:10;;;;;;;2.20;1.00;;;;;;;7.73;38.93;101180.75;102707;277;104428;-60
2023/04/04 10:21:48;;;;;;;2.70;1.10;;;;;;;7.57;39.08;101185.62;102709;277;113966;-55
2023/04/04 10:24:33;;;;;;;3.30;1.20;;;;;;;7.37;39.30;101187.27;102104;277;666294;-55
2023/04/04 10:27:12;;;;;;;3.90;1.40;;;;;;;7.22;39.54;101185.52;102660;277;97500;-55
2023/04/04 10:30:03;;;;;;;6.00;2.30;;;;;;;7.26;39.95;101178.66;102731;277;120663;-55
2023/04/04 10:32:50;;;;;;;2.90;1.70;;;;;;;7.39;40.05;101179.03;102721;266;105315;-56
2023/04/04 10:35:33;;;;;;;2.90;1.50;;;;;;;7.57;40.31;101178.28;102698;277;114056;-56
2023/04/04 10:38:12;;;;;;;5.40;2.50;;;;;;;7.58;40.45;101176.19;102741;277;92518;-55
2023/04/04 10:40:54;;;;;;;4.40;1.80;;;;;;;7.60;40.59;101174.70;102721;277;97699;-54
2023/04/04 10:43:35;;;;;;;5.40;2.00;;;;;;;7.33;40.66;101171.92;102741;277;121011;-55
2023/04/04 10:46:15;;;;;;;4.00;1.90;;;;;;;7.26;40.58;101174.50;102708;277;105503;-61
2023/04/04 10:48:54;;;;;;;3.50;1.50;;;;;;;7.12;40.63;101173.61;102720;277;112936;-60
2023/04/04 10:51:33;;;;;;;3.70;1.00;;;;;;;6.79;40.51;101173.79;102704;277;93333;-56
2023/04/04 10:54:19;;;;;;;4.20;1.20;;;;;;;6.52;40.85;101173.66;102708;265;97033;-55
2023/04/04 10:57:00;;;;;;;2.40;1.20;;;;;;;6.33;40.98;101175.46;102697;277;118950;-56
2023/04/04 11:00:05;;;;;;;2.10;1.00;;;;;;;6.38;41.31;101170.19;102710;277;106538;-55
2023/04/04 11:02:56;;;;;;;3.60;1.50;;;;;;;6.26;41.49;101170.79;102718;277;114768;-59
2023/04/04 11:05:42;;;;;;;3.00;1.30;;;;;;;6.24;41.53;101165.05;102724;277;93381;-59
2023/04/04 11:08:29;;;;;;;1.90;1.10;;;;;;;6.65;41.77;101159.30;102774;277;97378;-60
2023/04/04 11:11:08;;;;;;;3.00;1.20;;;;;;;7.01;41.70;101157.11;102722;277;120634;-58
2023/04/04 11:14:01;;;;;;;2.10;1.10;;;;;;;6.85;41.13;101159.90;102708;277;105309;-59
2023/04/04 11:16:53;;;;;;;3.40;1.10;;;;;;;6.47;40.97;101161.08;102532;278;114703;-58
2023/04/04 11:19:32;;;;;;;2.80;1.40;;;;;;;6.07;41.55;101165.35;102717;277;93303;-59
2023/04/04 11:22:12;;;;;;;2.40;1.30;;;;;;;5.59;42.49;101174.61;102705;277;97921;-61
2023/04/04 11:25:00;;;;;;;4.10;1.80;;;;;;;5.16;43.24;101178.70;102698;277;120174;-61
2023/04/04 11:27:43;;;;;;;3.90;1.60;;;;;;;4.85;43.90;101175.36;102671;277;105718;-56
2023/04/04 11:30:23;;;;;;;3.40;1.60;;;;;;;4.63;44.48;101175.70;102672;277;113442;-56
2023/04/04 11:33:05;;;;;;;3.80;1.80;;;;;;;4.59;44.93;101175.85;102715;277;93843;-55
2023/04/04 11:35:52;;;;;;;3.40;1.80;;;;;;;4.61;45.24;101173.75;102695;277;97689;-55
2023/04/04 11:38:36;;;;;;;3.30;1.50;;;;;;;4.69;45.37;101167.29;102725;277;120590;-55
2023/04/04 11:41:19;;;;;;;4.60;2.60;;;;;;;4.88;45.56;101166.78;102761;277;104967;-55
2023/04/04 11:44:12;;;;;;;7.50;2.00;;;;;;;5.12;45.46;101165.09;102709;277;114888;-55
2023/04/04 11:47:01;;;;;;;3.70;1.90;;;;;;;5.36;45.23;101165.80;102725;277;93304;-60
2023/04/04 11:49:44;;;;;;;3.80;1.40;;;;;;;5.53;45.08;101163.08;102756;266;96304;-59
2023/04/04 11:52:24;;;;;;;3.60;1.60;;;;;;;5.51;44.92;101159.99;102769;277;119619;-60
2023/04/04 11:55:14;;;;;;;4.90;2.60;;;;;;;5.34;45.12;101164.36;102710;277;106377;-60
2023/04/04 11:57:57;;;;;;;2.70;1.50;;;;;;;5.07;45.23;101165.25;102699;277;114191;-55
2023/04/04 12:00:35;;;;;;;3.60;1.50;;;;;;;4.89;45.44;101169.52;102690;277;92507;-55
2023/04/04 12:03:12;;;;;;;4.00;1.50;;;;;;;4.76;45.82;101165.98;102734;277;97669;-54
2023/04/04 12:05:49;;;;;;;3.50;1.60;;;;;;;4.74;45.88;101163.47;102699;277;120716;-55
2023/04/04 12:08:26;;;;;;;3.90;1.60;;;;;;;4.64;46.23;101166.70;102718;277;105892;-59
2023/04/04 12:11:08;;;;;;;3.20;1.70;;;;;;;4.57;46.47;101162.27;102721;277;114943;-56
2023/04/04 12:13:53;;;;;;;4.00;2.00;;;;;;;4.41;46.94;101161.58;102688;277;93741;-55
2023/04/04 12:16:33;;;;;;;3.90;1.50;;;;;;;4.33;47.16;101162.28;102682;277;97070;-59
2023/04/04 12:19:21;;;;;;;3.90;1.50;;;;;;;4.31;47.44;101159.45;102708;277;120346;-59
2023/04/04 12:22:03;;;;;;;2.90;1.40;;;;;;;4.35;47.84;101159.77;102722;277;105307;-59
2023/04/04 12:24:46;;;;;;;5.10;2.00;;;;;;;4.24;48.10;101158.95;102682;277;113487;-59
2023/04/04 12:27:21;;;;;;;4.40;1.60;;;;;;;4.43;48.25;101160.13;102723;277;94069;-54